createdAt,value
2023-02-17T00:00:16.990Z,10.90
2023-02-17T00:05:24.592Z,11.70
2023-02-17T00:10:29.445Z,10.77
2023-02-17T00:15:34.759Z,11.07
2023-02-17T00:20:44.224Z,11.83
2023-02-17T00:25:49.184Z,9.50
2023-02-17T00:30:54.337Z,9.50
2023-02-17T00:36:02.020Z,9.90
2023-02-17T00:41:08.651Z,11.57
2023-02-17T00:46:13.684Z,10.80
2023-02-17T00:51:22.397Z,10.37
2023-02-17T00:56:27.305Z,10.83
2023-02-17T01:01:32.550Z,11.47
2023-02-17T01:06:41.829Z,10.57
2023-02-17T01:11:46.853Z,10.73
2023-02-17T01:16:52.215Z,10.10
2023-02-17T01:22:01.337Z,10.77
2023-02-17T01:27:06.555Z,10.57
2023-02-17T01:32:11.789Z,11.63
2023-02-17T01:37:19.287Z,11.77
2023-02-17T01:42:24.214Z,10.30
2023-02-17T01:47:29.116Z,10.60
2023-02-17T01:52:36.849Z,10.67
2023-02-17T01:57:44.144Z,11.07
2023-02-17T02:02:51.744Z,10.93
2023-02-17T02:08:00.684Z,10.50
2023-02-17T02:13:06.655Z,10.67
2023-02-17T02:18:34.722Z,11.40
2023-02-17T02:24:12.643Z,10.73
2023-02-17T02:29:33.624Z,9.87
2023-02-17T02:34:47.380Z,10.23
2023-02-17T02:39:55.949Z,9.87
2023-02-17T02:45:01.103Z,8.70
2023-02-17T02:50:09.671Z,9.37
2023-02-17T02:55:21.879Z,8.33
2023-02-17T03:00:33.323Z,9.20
2023-02-17T03:05:52.681Z,7.37
2023-02-17T03:10:58.253Z,7.80
2023-02-17T03:16:04.150Z,8.00
2023-02-17T03:21:17.754Z,8.77
2023-02-17T03:26:22.805Z,8.73
2023-02-17T03:31:30.770Z,9.43
2023-02-17T03:36:38.797Z,10.07
2023-02-17T03:41:43.673Z,9.53
2023-02-17T03:46:48.743Z,9.43
2023-02-17T03:51:56.352Z,8.93
2023-02-17T03:57:01.564Z,8.60
2023-02-17T04:02:06.957Z,9.43
2023-02-17T04:07:14.564Z,9.60
2023-02-17T04:12:19.454Z,9.13
2023-02-17T04:17:24.704Z,9.27
2023-02-17T04:22:32.350Z,9.27
2023-02-17T04:27:37.542Z,9.93
2023-02-17T04:32:44.101Z,11.70
2023-02-17T04:37:51.707Z,10.97
2023-02-17T04:42:56.664Z,10.70
2023-02-17T04:48:01.787Z,11.97
2023-02-17T04:53:09.866Z,11.30
2023-02-17T04:58:14.926Z,12.37
2023-02-17T05:03:20.481Z,10.57
2023-02-17T05:08:30.272Z,11.37
2023-02-17T05:13:35.455Z,12.47
2023-02-17T05:18:41.986Z,12.67
2023-02-17T05:23:49.505Z,11.93
2023-02-17T05:28:54.520Z,11.60
2023-02-17T05:33:59.504Z,11.33
2023-02-17T05:39:09.085Z,12.30
2023-02-17T05:44:14.347Z,12.10
2023-02-17T05:49:19.439Z,12.10
2023-02-17T05:54:27.114Z,12.67
2023-02-17T05:59:31.992Z,11.47
2023-02-17T06:04:37.028Z,10.93
2023-02-17T06:09:47.411Z,11.93
2023-02-17T06:14:55.237Z,10.93
2023-02-17T06:20:00.482Z,10.60
2023-02-17T06:25:08.482Z,12.03
2023-02-17T06:30:15.079Z,10.90
2023-02-17T06:35:21.272Z,10.10
2023-02-17T06:40:28.996Z,10.03
2023-02-17T06:45:36.032Z,9.43
2023-02-17T06:50:45.930Z,9.90
2023-02-17T06:56:07.381Z,9.17
2023-02-17T07:01:20.563Z,9.10
2023-02-17T07:06:30.329Z,9.00
2023-02-17T07:11:38.164Z,10.10
2023-02-17T07:16:46.164Z,8.30
2023-02-17T07:22:08.023Z,7.83
2023-02-17T07:27:16.088Z,9.27
2023-02-17T07:32:21.072Z,9.00
2023-02-17T07:37:26.020Z,9.63
2023-02-17T07:42:33.772Z,8.17
2023-02-17T07:47:38.872Z,9.00
2023-02-17T07:52:44.069Z,8.57
2023-02-17T07:57:52.072Z,8.50
2023-02-17T08:02:57.000Z,9.33
2023-02-17T08:08:29.434Z,8.80
2023-02-17T08:13:37.379Z,7.70
2023-02-17T08:18:42.419Z,8.87
2023-02-17T08:23:47.430Z,8.57
2023-02-17T08:28:55.219Z,8.33
2023-02-17T08:34:02.685Z,9.27
2023-02-17T08:39:08.331Z,7.60
2023-02-17T08:44:17.854Z,7.63
2023-02-17T08:49:25.089Z,8.17
2023-02-17T08:54:30.590Z,7.83
2023-02-17T08:59:38.416Z,8.77
2023-02-17T09:04:43.868Z,8.07
2023-02-17T09:09:49.011Z,8.20
2023-02-17T09:14:56.889Z,7.57
2023-02-17T09:20:02.173Z,7.03
2023-02-17T09:25:11.150Z,7.33
2023-02-17T09:30:19.523Z,6.37
2023-02-17T09:35:24.551Z,6.40
2023-02-17T09:40:40.741Z,6.83
2023-02-17T09:45:53.707Z,5.73
2023-02-17T09:51:03.410Z,5.77
2023-02-17T09:56:16.194Z,5.47
2023-02-17T10:01:28.931Z,5.40
2023-02-17T10:06:37.643Z,4.33
2023-02-17T10:11:47.066Z,5.23
2023-02-17T10:17:03.226Z,4.57
2023-02-17T10:22:14.178Z,4.43
2023-02-17T10:27:39.469Z,4.53
2023-02-17T10:32:59.743Z,4.47
2023-02-17T10:38:15.487Z,3.80
2023-02-17T10:43:29.524Z,4.10
2023-02-17T10:48:49.023Z,4.17
2023-02-17T10:53:59.502Z,3.73
2023-02-17T10:59:09.398Z,3.97
2023-02-17T11:04:17.060Z,3.77
2023-02-17T11:09:30.857Z,3.70
2023-02-17T11:14:40.488Z,3.63
2023-02-17T11:19:57.964Z,3.40
2023-02-17T11:25:07.142Z,3.77
2023-02-17T11:30:18.916Z,3.33
2023-02-17T11:35:31.265Z,4.03
2023-02-17T11:40:37.993Z,4.40
2023-02-17T11:45:48.547Z,4.03
2023-02-17T11:51:05.513Z,4.53
2023-02-17T11:56:54.672Z,3.77
2023-02-17T12:02:37.417Z,3.80
2023-02-17T12:08:08.248Z,3.70
2023-02-17T12:13:35.624Z,3.67
2023-02-17T12:18:52.979Z,3.30
2023-02-17T12:24:35.496Z,3.13
2023-02-17T12:30:01.892Z,3.37
2023-02-17T12:35:17.492Z,2.47
2023-02-17T12:40:37.824Z,3.27
2023-02-17T12:45:51.576Z,2.80
2023-02-17T12:51:05.846Z,2.70
2023-02-17T12:56:33.156Z,2.70
2023-02-17T13:01:51.524Z,3.00
2023-02-17T13:07:15.849Z,2.97
2023-02-17T13:12:41.563Z,2.80
2023-02-17T13:18:03.788Z,2.83
2023-02-17T13:23:11.878Z,3.50
2023-02-17T13:28:33.618Z,3.13
2023-02-17T13:33:48.995Z,2.93
2023-02-17T13:39:03.283Z,2.73
2023-02-17T13:44:30.290Z,2.40
2023-02-17T13:49:40.346Z,2.20
2023-02-17T13:54:54.491Z,2.10
2023-02-17T14:00:35.019Z,2.20
2023-02-17T14:05:49.317Z,2.23
2023-02-17T14:11:09.285Z,2.30
2023-02-17T14:16:30.875Z,1.87
2023-02-17T14:21:40.165Z,1.70
2023-02-17T14:26:50.083Z,2.13
2023-02-17T14:31:57.626Z,1.70
2023-02-17T14:37:14.124Z,1.50
2023-02-17T14:42:19.599Z,1.50
2023-02-17T14:47:24.658Z,1.43
2023-02-17T14:52:33.209Z,1.43
2023-02-17T14:57:38.169Z,1.50
2023-02-17T15:02:43.127Z,1.73
2023-02-17T15:07:53.342Z,1.47
2023-02-17T15:13:02.360Z,1.90
2023-02-17T15:18:07.521Z,1.80
2023-02-17T15:23:18.112Z,1.50
2023-02-17T15:28:23.792Z,1.67
2023-02-17T15:33:28.824Z,1.57
2023-02-17T15:38:36.483Z,1.67
2023-02-17T15:43:43.914Z,1.70
2023-02-17T15:48:52.373Z,1.60
2023-02-17T15:54:02.530Z,1.77
2023-02-17T15:59:17.642Z,1.60
2023-02-17T16:04:22.962Z,1.50
2023-02-17T16:09:30.752Z,2.10
2023-02-17T16:14:38.480Z,1.53
2023-02-17T16:19:43.572Z,2.03
2023-02-17T16:24:51.199Z,1.90
2023-02-17T16:29:56.228Z,2.07
2023-02-17T16:35:01.397Z,1.93
2023-02-17T16:40:19.074Z,1.80
2023-02-17T16:45:28.154Z,2.20
2023-02-17T16:50:35.390Z,1.77
2023-02-17T16:55:43.535Z,1.93
2023-02-17T17:00:52.313Z,2.23
2023-02-17T17:05:57.942Z,2.10
2023-02-17T17:11:05.417Z,2.00
2023-02-17T17:16:15.013Z,1.77
2023-02-17T17:21:22.110Z,1.83
2023-02-17T17:26:33.836Z,1.80
2023-02-17T17:31:40.062Z,1.57
2023-02-17T17:36:48.164Z,1.70
2023-02-17T17:41:57.523Z,1.63
2023-02-17T17:47:02.461Z,1.73
2023-02-17T17:52:08.561Z,1.80
2023-02-17T17:57:16.158Z,1.83
2023-02-17T18:02:21.104Z,2.03
2023-02-17T18:07:26.262Z,1.70
2023-02-17T18:12:35.586Z,1.80
2023-02-17T18:17:45.500Z,2.50
2023-02-17T18:22:50.760Z,2.40
2023-02-17T18:28:01.058Z,2.60
2023-02-17T18:33:06.931Z,2.93
2023-02-17T18:38:12.538Z,3.20
2023-02-17T18:43:22.964Z,2.80
2023-02-17T18:48:28.354Z,2.60
2023-02-17T18:53:33.412Z,2.70
2023-02-17T18:58:41.053Z,2.70
2023-02-17T19:03:46.638Z,2.37
2023-02-17T19:08:52.560Z,2.80
2023-02-17T19:14:00.523Z,3.80
2023-02-17T19:19:06.238Z,2.80
2023-02-17T19:24:14.979Z,3.53
2023-02-17T19:29:22.974Z,3.90
2023-02-17T19:34:28.413Z,4.97
2023-02-17T19:39:39.646Z,4.00
2023-02-17T19:44:47.565Z,3.10
2023-02-17T19:49:52.531Z,3.13
2023-02-17T19:54:57.563Z,3.10
2023-02-17T20:00:05.345Z,3.13
2023-02-17T20:05:11.976Z,2.97
2023-02-17T20:10:20.516Z,3.50
2023-02-17T20:15:28.474Z,2.60
2023-02-17T20:20:34.593Z,3.10
2023-02-17T20:25:43.510Z,2.93
2023-02-17T20:30:53.780Z,3.30
2023-02-17T20:35:58.923Z,3.60
2023-02-17T20:41:05.251Z,3.20
2023-02-17T20:46:16.126Z,3.87
2023-02-17T20:51:22.067Z,3.57
2023-02-17T20:56:36.307Z,3.70
2023-02-17T21:01:46.010Z,3.70
2023-02-17T21:06:51.859Z,4.07
2023-02-17T21:11:56.789Z,4.13
2023-02-17T21:17:04.307Z,3.80
2023-02-17T21:22:10.932Z,4.60
2023-02-17T21:27:15.870Z,4.93
2023-02-17T21:32:23.603Z,4.73
2023-02-17T21:37:28.690Z,4.07
2023-02-17T21:42:46.246Z,3.97
2023-02-17T21:47:56.488Z,4.00
2023-02-17T21:53:01.428Z,4.53
2023-02-17T21:58:06.371Z,5.13
2023-02-17T22:03:14.050Z,6.00
2023-02-17T22:08:21.037Z,5.80
2023-02-17T22:13:26.120Z,5.40
2023-02-17T22:18:33.724Z,5.17
2023-02-17T22:23:39.529Z,5.43
2023-02-17T22:28:44.657Z,5.47
2023-02-17T22:33:54.163Z,4.57
2023-02-17T22:38:59.121Z,4.00
2023-02-17T22:44:06.649Z,3.50
2023-02-17T22:49:14.393Z,2.83
2023-02-17T22:54:19.327Z,2.57
2023-02-17T22:59:24.659Z,2.13
2023-02-17T23:04:32.716Z,2.07
2023-02-17T23:09:37.929Z,1.93
2023-02-17T23:14:46.755Z,1.70
2023-02-17T23:19:54.404Z,1.43
2023-02-17T23:25:00.453Z,2.37
2023-02-17T23:30:10.639Z,1.70
2023-02-17T23:35:19.193Z,1.23
2023-02-17T23:40:24.851Z,1.50
2023-02-17T23:45:29.818Z,1.50
2023-02-17T23:50:39.309Z,1.87
2023-02-17T23:55:44.472Z,1.97
